sensor_id;sensor_type;location;lat;lon;timestamp;P1;durP1;ratioP1;P2;durP2;ratioP2
36653;SDS011;22650;49.350;20.898;2023-11-19T00:01:02;916.03;;;835.20;;
36653;SDS011;22650;49.350;20.898;2023-11-19T00:03:37;921.53;;;839.35;;
36653;SDS011;22650;49.350;20.898;2023-11-19T00:06:10;898.70;;;818.42;;
36653;SDS011;22650;49.350;20.898;2023-11-19T00:08:44;921.28;;;838.17;;
36653;SDS011;22650;49.350;20.898;2023-11-19T00:11:18;914.25;;;831.70;;
36653;SDS011;22650;49.350;20.898;2023-11-19T00:13:51;924.92;;;845.03;;
36653;SDS011;22650;49.350;20.898;2023-11-19T00:16:26;875.47;;;795.10;;
36653;SDS011;22650;49.350;20.898;2023-11-19T00:19:00;995.38;;;907.60;;
36653;SDS011;22650;49.350;20.898;2023-11-19T00:21:36;968.13;;;885.25;;
36653;SDS011;22650;49.350;20.898;2023-11-19T00:24:09;918.17;;;838.83;;
36653;SDS011;22650;49.350;20.898;2023-11-19T00:26:43;869.20;;;793.33;;
36653;SDS011;22650;49.350;20.898;2023-11-19T00:29:17;938.33;;;850.95;;
36653;SDS011;22650;49.350;20.898;2023-11-19T00:31:53;915.17;;;832.58;;
36653;SDS011;22650;49.350;20.898;2023-11-19T00:34:26;1016.17;;;924.08;;
36653;SDS011;22650;49.350;20.898;2023-11-19T00:37:00;959.88;;;877.33;;
36653;SDS011;22650;49.350;20.898;2023-11-19T00:39:35;969.83;;;882.40;;
36653;SDS011;22650;49.350;20.898;2023-11-19T00:42:09;939.03;;;855.10;;
36653;SDS011;22650;49.350;20.898;2023-11-19T00:44:43;920.78;;;839.28;;
36653;SDS011;22650;49.350;20.898;2023-11-19T00:47:21;911.55;;;832.72;;
36653;SDS011;22650;49.350;20.898;2023-11-19T00:49:55;990.15;;;902.15;;
36653;SDS011;22650;49.350;20.898;2023-11-19T00:52:29;955.58;;;867.40;;
36653;SDS011;22650;49.350;20.898;2023-11-19T00:55:03;920.47;;;839.08;;
36653;SDS011;22650;49.350;20.898;2023-11-19T00:57:37;946.40;;;860.88;;
36653;SDS011;22650;49.350;20.898;2023-11-19T01:00:11;955.08;;;867.15;;
36653;SDS011;22650;49.350;20.898;2023-11-19T01:02:53;951.78;;;869.92;;
36653;SDS011;22650;49.350;20.898;2023-11-19T01:05:27;948.35;;;866.05;;
36653;SDS011;22650;49.350;20.898;2023-11-19T01:08:01;904.03;;;828.50;;
36653;SDS011;22650;49.350;20.898;2023-11-19T01:10:36;911.45;;;834.47;;
36653;SDS011;22650;49.350;20.898;2023-11-19T01:13:10;934.05;;;852.08;;
36653;SDS011;22650;49.350;20.898;2023-11-19T01:15:44;949.08;;;867.42;;
36653;SDS011;22650;49.350;20.898;2023-11-19T01:18:19;931.88;;;852.58;;
36653;SDS011;22650;49.350;20.898;2023-11-19T01:20:52;942.25;;;864.63;;
36653;SDS011;22650;49.350;20.898;2023-11-19T01:23:26;934.55;;;853.15;;
36653;SDS011;22650;49.350;20.898;2023-11-19T01:26:00;936.67;;;858.47;;
36653;SDS011;22650;49.350;20.898;2023-11-19T01:28:33;931.42;;;853.92;;
36653;SDS011;22650;49.350;20.898;2023-11-19T01:31:07;934.38;;;856.67;;
36653;SDS011;22650;49.350;20.898;2023-11-19T01:33:42;898.47;;;821.25;;
36653;SDS011;22650;49.350;20.898;2023-11-19T01:36:16;902.20;;;826.03;;
36653;SDS011;22650;49.350;20.898;2023-11-19T01:38:49;990.10;;;908.75;;
36653;SDS011;22650;49.350;20.898;2023-11-19T01:41:23;986.55;;;902.83;;
36653;SDS011;22650;49.350;20.898;2023-11-19T01:43:57;994.00;;;911.30;;
36653;SDS011;22650;49.350;20.898;2023-11-19T01:46:31;907.08;;;834.05;;
36653;SDS011;22650;49.350;20.898;2023-11-19T01:49:06;871.90;;;799.50;;
36653;SDS011;22650;49.350;20.898;2023-11-19T01:51:43;970.65;;;888.55;;
36653;SDS011;22650;49.350;20.898;2023-11-19T01:54:17;903.58;;;829.00;;
36653;SDS011;22650;49.350;20.898;2023-11-19T01:56:51;935.72;;;857.80;;
36653;SDS011;22650;49.350;20.898;2023-11-19T01:59:28;893.45;;;817.50;;
36653;SDS011;22650;49.350;20.898;2023-11-19T02:02:01;928.00;;;850.75;;
36653;SDS011;22650;49.350;20.898;2023-11-19T02:04:37;926.95;;;848.90;;
36653;SDS011;22650;49.350;20.898;2023-11-19T02:07:12;943.97;;;863.63;;
36653;SDS011;22650;49.350;20.898;2023-11-19T02:09:46;982.40;;;899.70;;
36653;SDS011;22650;49.350;20.898;2023-11-19T02:12:20;958.05;;;876.95;;
36653;SDS011;22650;49.350;20.898;2023-11-19T02:14:53;946.80;;;867.50;;
36653;SDS011;22650;49.350;20.898;2023-11-19T02:17:27;938.55;;;861.33;;
36653;SDS011;22650;49.350;20.898;2023-11-19T02:20:05;924.33;;;846.45;;
36653;SDS011;22650;49.350;20.898;2023-11-19T02:22:40;897.58;;;820.72;;
36653;SDS011;22650;49.350;20.898;2023-11-19T02:25:15;902.22;;;824.45;;
36653;SDS011;22650;49.350;20.898;2023-11-19T02:27:54;893.95;;;816.60;;
36653;SDS011;22650;49.350;20.898;2023-11-19T02:30:31;971.78;;;889.40;;
36653;SDS011;22650;49.350;20.898;2023-11-19T02:33:05;940.90;;;862.70;;
36653;SDS011;22650;49.350;20.898;2023-11-19T02:35:38;957.03;;;875.20;;
36653;SDS011;22650;49.350;20.898;2023-11-19T02:38:12;920.47;;;844.28;;
36653;SDS011;22650;49.350;20.898;2023-11-19T02:40:46;893.55;;;818.65;;
36653;SDS011;22650;49.350;20.898;2023-11-19T02:43:22;945.05;;;866.70;;
36653;SDS011;22650;49.350;20.898;2023-11-19T02:45:55;933.38;;;855.65;;
36653;SDS011;22650;49.350;20.898;2023-11-19T02:48:29;964.17;;;884.70;;
36653;SDS011;22650;49.350;20.898;2023-11-19T02:51:03;950.78;;;871.25;;
36653;SDS011;22650;49.350;20.898;2023-11-19T02:53:41;953.10;;;875.85;;
36653;SDS011;22650;49.350;20.898;2023-11-19T02:56:16;927.28;;;851.00;;
36653;SDS011;22650;49.350;20.898;2023-11-19T02:58:59;892.80;;;821.25;;
36653;SDS011;22650;49.350;20.898;2023-11-19T03:01:35;925.25;;;850.85;;
36653;SDS011;22650;49.350;20.898;2023-11-19T03:04:09;958.65;;;882.25;;
36653;SDS011;22650;49.350;20.898;2023-11-19T03:06:44;941.83;;;865.00;;
36653;SDS011;22650;49.350;20.898;2023-11-19T03:09:17;950.90;;;872.53;;
36653;SDS011;22650;49.350;20.898;2023-11-19T03:11:51;917.22;;;841.90;;
36653;SDS011;22650;49.350;20.898;2023-11-19T03:14:26;919.90;;;847.47;;
36653;SDS011;22650;49.350;20.898;2023-11-19T03:17:00;934.20;;;856.65;;
36653;SDS011;22650;49.350;20.898;2023-11-19T03:19:35;927.55;;;851.30;;
36653;SDS011;22650;49.350;20.898;2023-11-19T03:22:09;910.25;;;837.38;;
36653;SDS011;22650;49.350;20.898;2023-11-19T03:24:43;925.63;;;851.55;;
36653;SDS011;22650;49.350;20.898;2023-11-19T03:27:17;894.97;;;824.78;;
36653;SDS011;22650;49.350;20.898;2023-11-19T03:29:52;930.95;;;855.67;;
36653;SDS011;22650;49.350;20.898;2023-11-19T03:32:25;902.45;;;833.45;;
36653;SDS011;22650;49.350;20.898;2023-11-19T03:34:59;886.33;;;817.17;;
36653;SDS011;22650;49.350;20.898;2023-11-19T03:37:33;936.75;;;860.35;;
36653;SDS011;22650;49.350;20.898;2023-11-19T03:40:08;962.70;;;886.17;;
36653;SDS011;22650;49.350;20.898;2023-11-19T03:42:43;913.67;;;839.15;;
36653;SDS011;22650;49.350;20.898;2023-11-19T03:45:18;943.67;;;868.58;;
36653;SDS011;22650;49.350;20.898;2023-11-19T03:47:52;872.08;;;803.75;;
36653;SDS011;22650;49.350;20.898;2023-11-19T03:50:26;946.35;;;867.92;;
36653;SDS011;22650;49.350;20.898;2023-11-19T03:53:00;940.42;;;865.63;;
36653;SDS011;22650;49.350;20.898;2023-11-19T03:55:34;926.38;;;850.58;;
36653;SDS011;22650;49.350;20.898;2023-11-19T03:58:08;933.53;;;860.17;;
36653;SDS011;22650;49.350;20.898;2023-11-19T04:00:43;923.97;;;846.90;;
36653;SDS011;22650;49.350;20.898;2023-11-19T04:03:17;912.90;;;841.50;;
36653;SDS011;22650;49.350;20.898;2023-11-19T04:05:51;967.25;;;888.20;;
36653;SDS011;22650;49.350;20.898;2023-11-19T04:08:25;922.40;;;848.38;;
36653;SDS011;22650;49.350;20.898;2023-11-19T04:10:58;899.03;;;828.78;;
36653;SDS011;22650;49.350;20.898;2023-11-19T04:13:33;923.05;;;851.22;;
36653;SDS011;22650;49.350;20.898;2023-11-19T04:16:08;946.65;;;867.72;;
36653;SDS011;22650;49.350;20.898;2023-11-19T04:18:42;933.40;;;857.63;;
36653;SDS011;22650;49.350;20.898;2023-11-19T04:21:16;874.53;;;802.72;;
36653;SDS011;22650;49.350;20.898;2023-11-19T04:23:49;914.33;;;839.97;;
36653;SDS011;22650;49.350;20.898;2023-11-19T04:26:23;914.75;;;841.35;;
36653;SDS011;22650;49.350;20.898;2023-11-19T04:28:56;904.50;;;828.85;;
36653;SDS011;22650;49.350;20.898;2023-11-19T04:31:33;913.08;;;838.75;;
36653;SDS011;22650;49.350;20.898;2023-11-19T04:34:07;900.78;;;829.78;;
36653;SDS011;22650;49.350;20.898;2023-11-19T04:36:40;905.20;;;832.08;;
36653;SDS011;22650;49.350;20.898;2023-11-19T04:39:15;894.90;;;822.65;;
36653;SDS011;22650;49.350;20.898;2023-11-19T04:41:51;915.30;;;841.03;;
36653;SDS011;22650;49.350;20.898;2023-11-19T04:44:24;889.15;;;817.95;;
36653;SDS011;22650;49.350;20.898;2023-11-19T04:46:59;919.38;;;845.17;;
36653;SDS011;22650;49.350;20.898;2023-11-19T04:49:33;900.40;;;827.85;;
36653;SDS011;22650;49.350;20.898;2023-11-19T04:52:07;903.50;;;830.92;;
36653;SDS011;22650;49.350;20.898;2023-11-19T04:54:41;900.25;;;829.10;;
36653;SDS011;22650;49.350;20.898;2023-11-19T04:57:16;855.85;;;791.85;;
36653;SDS011;22650;49.350;20.898;2023-11-19T04:59:50;855.72;;;790.03;;
36653;SDS011;22650;49.350;20.898;2023-11-19T05:02:25;928.40;;;854.72;;
36653;SDS011;22650;49.350;20.898;2023-11-19T05:04:58;928.03;;;853.30;;
36653;SDS011;22650;49.350;20.898;2023-11-19T05:07:32;897.00;;;827.30;;
36653;SDS011;22650;49.350;20.898;2023-11-19T05:10:06;895.83;;;825.08;;
36653;SDS011;22650;49.350;20.898;2023-11-19T05:12:40;910.92;;;839.05;;
36653;SDS011;22650;49.350;20.898;2023-11-19T05:15:14;913.38;;;838.72;;
36653;SDS011;22650;49.350;20.898;2023-11-19T05:17:49;910.97;;;838.97;;
36653;SDS011;22650;49.350;20.898;2023-11-19T05:20:23;909.50;;;836.35;;
36653;SDS011;22650;49.350;20.898;2023-11-19T05:22:56;913.10;;;838.72;;
36653;SDS011;22650;49.350;20.898;2023-11-19T05:25:32;867.95;;;799.80;;
36653;SDS011;22650;49.350;20.898;2023-11-19T05:28:05;875.10;;;804.97;;
36653;SDS011;22650;49.350;20.898;2023-11-19T05:30:39;857.30;;;789.10;;
36653;SDS011;22650;49.350;20.898;2023-11-19T05:33:14;903.85;;;831.97;;
36653;SDS011;22650;49.350;20.898;2023-11-19T05:35:48;899.55;;;829.05;;
36653;SDS011;22650;49.350;20.898;2023-11-19T05:38:21;894.30;;;822.85;;
36653;SDS011;22650;49.350;20.898;2023-11-19T05:40:55;937.25;;;861.17;;
36653;SDS011;22650;49.350;20.898;2023-11-19T05:43:29;890.65;;;823.70;;
36653;SDS011;22650;49.350;20.898;2023-11-19T05:46:02;931.22;;;856.17;;
36653;SDS011;22650;49.350;20.898;2023-11-19T05:48:52;901.67;;;829.60;;
36653;SDS011;22650;49.350;20.898;2023-11-19T05:51:26;922.97;;;849.35;;
36653;SDS011;22650;49.350;20.898;2023-11-19T05:53:59;884.53;;;812.70;;
36653;SDS011;22650;49.350;20.898;2023-11-19T05:56:33;928.22;;;853.38;;
36653;SDS011;22650;49.350;20.898;2023-11-19T05:59:07;909.45;;;837.83;;
36653;SDS011;22650;49.350;20.898;2023-11-19T06:01:47;882.42;;;811.92;;
36653;SDS011;22650;49.350;20.898;2023-11-19T06:04:22;899.95;;;828.15;;
36653;SDS011;22650;49.350;20.898;2023-11-19T06:06:55;899.13;;;827.50;;
36653;SDS011;22650;49.350;20.898;2023-11-19T06:09:29;905.20;;;832.17;;
36653;SDS011;22650;49.350;20.898;2023-11-19T06:12:05;884.10;;;812.58;;
36653;SDS011;22650;49.350;20.898;2023-11-19T06:14:40;865.50;;;797.53;;
36653;SDS011;22650;49.350;20.898;2023-11-19T06:17:13;858.20;;;790.53;;
36653;SDS011;22650;49.350;20.898;2023-11-19T06:19:50;854.80;;;784.38;;
36653;SDS011;22650;49.350;20.898;2023-11-19T06:22:23;864.00;;;796.90;;
36653;SDS011;22650;49.350;20.898;2023-11-19T06:24:57;850.58;;;783.33;;
36653;SDS011;22650;49.350;20.898;2023-11-19T06:27:32;844.30;;;775.35;;
36653;SDS011;22650;49.350;20.898;2023-11-19T06:30:06;816.88;;;753.63;;
36653;SDS011;22650;49.350;20.898;2023-11-19T06:32:40;885.95;;;815.40;;
36653;SDS011;22650;49.350;20.898;2023-11-19T06:35:15;866.40;;;796.83;;
36653;SDS011;22650;49.350;20.898;2023-11-19T06:37:50;867.17;;;798.25;;
36653;SDS011;22650;49.350;20.898;2023-11-19T06:40:23;887.33;;;813.92;;
36653;SDS011;22650;49.350;20.898;2023-11-19T06:42:57;876.78;;;807.10;;
36653;SDS011;22650;49.350;20.898;2023-11-19T06:45:30;851.13;;;783.75;;
36653;SDS011;22650;49.350;20.898;2023-11-19T06:48:04;861.97;;;792.50;;
36653;SDS011;22650;49.350;20.898;2023-11-19T06:50:40;885.45;;;813.17;;
36653;SDS011;22650;49.350;20.898;2023-11-19T06:53:14;830.22;;;763.92;;
36653;SDS011;22650;49.350;20.898;2023-11-19T06:55:48;860.95;;;792.92;;
36653;SDS011;22650;49.350;20.898;2023-11-19T06:58:21;852.13;;;782.10;;
36653;SDS011;22650;49.350;20.898;2023-11-19T07:00:55;890.08;;;820.30;;
36653;SDS011;22650;49.350;20.898;2023-11-19T07:03:29;879.70;;;811.53;;
36653;SDS011;22650;49.350;20.898;2023-11-19T07:06:05;879.28;;;810.70;;
36653;SDS011;22650;49.350;20.898;2023-11-19T07:08:41;881.00;;;811.15;;
36653;SDS011;22650;49.350;20.898;2023-11-19T07:11:17;876.90;;;808.60;;
36653;SDS011;22650;49.350;20.898;2023-11-19T07:13:50;876.38;;;808.60;;
36653;SDS011;22650;49.350;20.898;2023-11-19T07:16:24;892.80;;;823.17;;
36653;SDS011;22650;49.350;20.898;2023-11-19T07:18:58;903.22;;;831.78;;
36653;SDS011;22650;49.350;20.898;2023-11-19T07:21:33;875.15;;;805.08;;
36653;SDS011;22650;49.350;20.898;2023-11-19T07:24:07;883.22;;;813.95;;
36653;SDS011;22650;49.350;20.898;2023-11-19T07:26:41;910.22;;;839.45;;
36653;SDS011;22650;49.350;20.898;2023-11-19T07:29:16;893.58;;;823.78;;
36653;SDS011;22650;49.350;20.898;2023-11-19T07:31:52;868.88;;;798.78;;
36653;SDS011;22650;49.350;20.898;2023-11-19T07:34:26;837.00;;;770.20;;
36653;SDS011;22650;49.350;20.898;2023-11-19T07:37:02;864.03;;;794.88;;
36653;SDS011;22650;49.350;20.898;2023-11-19T07:39:36;858.22;;;790.58;;
36653;SDS011;22650;49.350;20.898;2023-11-19T07:42:13;837.53;;;771.13;;
36653;SDS011;22650;49.350;20.898;2023-11-19T07:44:46;864.13;;;793.40;;
36653;SDS011;22650;49.350;20.898;2023-11-19T07:47:20;857.42;;;789.53;;
36653;SDS011;22650;49.350;20.898;2023-11-19T07:49:55;869.75;;;798.83;;
36653;SDS011;22650;49.350;20.898;2023-11-19T07:52:31;817.25;;;754.60;;
36653;SDS011;22650;49.350;20.898;2023-11-19T07:55:05;861.42;;;795.55;;
36653;SDS011;22650;49.350;20.898;2023-11-19T07:57:39;862.35;;;793.72;;
36653;SDS011;22650;49.350;20.898;2023-11-19T08:00:13;805.65;;;743.63;;
36653;SDS011;22650;49.350;20.898;2023-11-19T08:02:47;870.05;;;801.08;;
36653;SDS011;22650;49.350;20.898;2023-11-19T08:05:21;839.20;;;772.58;;
36653;SDS011;22650;49.350;20.898;2023-11-19T08:07:58;844.05;;;776.10;;
36653;SDS011;22650;49.350;20.898;2023-11-19T08:10:31;797.00;;;733.55;;
36653;SDS011;22650;49.350;20.898;2023-11-19T08:13:05;809.13;;;744.38;;
36653;SDS011;22650;49.350;20.898;2023-11-19T08:15:40;763.45;;;704.75;;
36653;SDS011;22650;49.350;20.898;2023-11-19T08:18:14;802.83;;;741.05;;
36653;SDS011;22650;49.350;20.898;2023-11-19T08:20:48;831.22;;;766.05;;
36653;SDS011;22650;49.350;20.898;2023-11-19T08:23:26;817.67;;;755.20;;
36653;SDS011;22650;49.350;20.898;2023-11-19T08:26:00;764.28;;;704.15;;
36653;SDS011;22650;49.350;20.898;2023-11-19T08:28:34;817.10;;;751.90;;
36653;SDS011;22650;49.350;20.898;2023-11-19T08:31:07;744.53;;;686.97;;
36653;SDS011;22650;49.350;20.898;2023-11-19T08:33:41;763.88;;;703.97;;
36653;SDS011;22650;49.350;20.898;2023-11-19T08:36:15;772.05;;;713.17;;
36653;SDS011;22650;49.350;20.898;2023-11-19T08:38:50;814.47;;;751.75;;
36653;SDS011;22650;49.350;20.898;2023-11-19T08:41:24;777.10;;;716.65;;
36653;SDS011;22650;49.350;20.898;2023-11-19T08:43:58;835.30;;;769.78;;
36653;SDS011;22650;49.350;20.898;2023-11-19T08:46:32;759.90;;;701.95;;
36653;SDS011;22650;49.350;20.898;2023-11-19T08:49:05;766.97;;;705.75;;
36653;SDS011;22650;49.350;20.898;2023-11-19T08:51:40;810.17;;;744.63;;
36653;SDS011;22650;49.350;20.898;2023-11-19T08:54:15;792.80;;;730.38;;
36653;SDS011;22650;49.350;20.898;2023-11-19T08:56:49;855.92;;;786.22;;
36653;SDS011;22650;49.350;20.898;2023-11-19T08:59:23;792.55;;;729.50;;
36653;SDS011;22650;49.350;20.898;2023-11-19T09:01:57;863.33;;;787.78;;
36653;SDS011;22650;49.350;20.898;2023-11-19T09:04:30;788.35;;;728.40;;
36653;SDS011;22650;49.350;20.898;2023-11-19T09:07:04;892.92;;;806.63;;
36653;SDS011;22650;49.350;20.898;2023-11-19T09:09:39;819.85;;;755.20;;
36653;SDS011;22650;49.350;20.898;2023-11-19T09:12:12;812.67;;;748.22;;
36653;SDS011;22650;49.350;20.898;2023-11-19T09:14:46;804.10;;;739.72;;
36653;SDS011;22650;49.350;20.898;2023-11-19T09:17:21;774.88;;;715.55;;
36653;SDS011;22650;49.350;20.898;2023-11-19T09:19:55;801.95;;;737.20;;
36653;SDS011;22650;49.350;20.898;2023-11-19T09:22:29;869.70;;;797.22;;
36653;SDS011;22650;49.350;20.898;2023-11-19T09:25:04;834.30;;;765.58;;
36653;SDS011;22650;49.350;20.898;2023-11-19T09:27:38;856.42;;;786.20;;
36653;SDS011;22650;49.350;20.898;2023-11-19T09:30:12;807.70;;;743.10;;
36653;SDS011;22650;49.350;20.898;2023-11-19T09:32:46;820.17;;;754.65;;
36653;SDS011;22650;49.350;20.898;2023-11-19T09:35:19;796.78;;;733.35;;
36653;SDS011;22650;49.350;20.898;2023-11-19T09:37:53;805.47;;;741.28;;
36653;SDS011;22650;49.350;20.898;2023-11-19T09:40:28;823.78;;;756.50;;
36653;SDS011;22650;49.350;20.898;2023-11-19T09:43:03;833.53;;;766.75;;
36653;SDS011;22650;49.350;20.898;2023-11-19T09:45:48;790.70;;;729.95;;
36653;SDS011;22650;49.350;20.898;2023-11-19T09:48:22;795.78;;;733.42;;
36653;SDS011;22650;49.350;20.898;2023-11-19T09:50:59;831.22;;;765.40;;
36653;SDS011;22650;49.350;20.898;2023-11-19T09:53:35;799.55;;;734.92;;
36653;SDS011;22650;49.350;20.898;2023-11-19T09:56:11;844.97;;;778.15;;
36653;SDS011;22650;49.350;20.898;2023-11-19T09:58:46;788.03;;;725.53;;
36653;SDS011;22650;49.350;20.898;2023-11-19T10:01:20;789.28;;;726.33;;
36653;SDS011;22650;49.350;20.898;2023-11-19T10:03:59;835.70;;;769.92;;
36653;SDS011;22650;49.350;20.898;2023-11-19T10:06:34;799.72;;;736.33;;
36653;SDS011;22650;49.350;20.898;2023-11-19T10:09:08;856.47;;;788.10;;
36653;SDS011;22650;49.350;20.898;2023-11-19T10:11:43;786.17;;;724.08;;
36653;SDS011;22650;49.350;20.898;2023-11-19T10:14:17;821.75;;;756.22;;
36653;SDS011;22650;49.350;20.898;2023-11-19T10:16:54;810.40;;;746.03;;
36653;SDS011;22650;49.350;20.898;2023-11-19T10:19:28;813.00;;;749.85;;
36653;SDS011;22650;49.350;20.898;2023-11-19T10:22:03;779.22;;;719.40;;
36653;SDS011;22650;49.350;20.898;2023-11-19T10:24:38;816.17;;;752.58;;
36653;SDS011;22650;49.350;20.898;2023-11-19T10:27:21;827.60;;;761.65;;
36653;SDS011;22650;49.350;20.898;2023-11-19T10:29:59;824.15;;;758.58;;
36653;SDS011;22650;49.350;20.898;2023-11-19T10:32:34;817.45;;;752.47;;
36653;SDS011;22650;49.350;20.898;2023-11-19T10:35:08;794.85;;;733.08;;
36653;SDS011;22650;49.350;20.898;2023-11-19T10:37:44;843.80;;;776.28;;
36653;SDS011;22650;49.350;20.898;2023-11-19T10:40:17;826.03;;;760.88;;
36653;SDS011;22650;49.350;20.898;2023-11-19T10:43:01;807.00;;;742.20;;
36653;SDS011;22650;49.350;20.898;2023-11-19T10:45:36;809.65;;;746.75;;
36653;SDS011;22650;49.350;20.898;2023-11-19T10:48:10;827.80;;;761.75;;
36653;SDS011;22650;49.350;20.898;2023-11-19T10:50:45;813.63;;;751.47;;
36653;SDS011;22650;49.350;20.898;2023-11-19T10:53:21;788.47;;;727.75;;
36653;SDS011;22650;49.350;20.898;2023-11-19T10:55:58;838.38;;;771.60;;
36653;SDS011;22650;49.350;20.898;2023-11-19T10:58:35;830.33;;;763.70;;
36653;SDS011;22650;49.350;20.898;2023-11-19T11:01:11;761.67;;;703.80;;
36653;SDS011;22650;49.350;20.898;2023-11-19T11:03:50;805.17;;;740.30;;
36653;SDS011;22650;49.350;20.898;2023-11-19T11:06:26;806.60;;;742.92;;
36653;SDS011;22650;49.350;20.898;2023-11-19T11:09:00;806.80;;;741.47;;
36653;SDS011;22650;49.350;20.898;2023-11-19T11:11:34;822.33;;;757.67;;
36653;SDS011;22650;49.350;20.898;2023-11-19T11:14:11;817.85;;;750.80;;
36653;SDS011;22650;49.350;20.898;2023-11-19T11:16:46;772.00;;;711.50;;
36653;SDS011;22650;49.350;20.898;2023-11-19T11:19:22;775.83;;;714.60;;
36653;SDS011;22650;49.350;20.898;2023-11-19T11:21:55;772.40;;;709.97;;
36653;SDS011;22650;49.350;20.898;2023-11-19T11:24:33;723.70;;;668.78;;
36653;SDS011;22650;49.350;20.898;2023-11-19T11:27:30;784.80;;;723.83;;
36653;SDS011;22650;49.350;20.898;2023-11-19T11:30:23;743.13;;;687.92;;
36653;SDS011;22650;49.350;20.898;2023-11-19T11:33:13;792.28;;;731.60;;
36653;SDS011;22650;49.350;20.898;2023-11-19T11:35:59;773.90;;;714.78;;
36653;SDS011;22650;49.350;20.898;2023-11-19T11:38:44;790.33;;;728.08;;
36653;SDS011;22650;49.350;20.898;2023-11-19T11:41:21;760.67;;;703.65;;
36653;SDS011;22650;49.350;20.898;2023-11-19T11:44:00;778.15;;;719.55;;
36653;SDS011;22650;49.350;20.898;2023-11-19T11:49:28;743.15;;;688.13;;
36653;SDS011;22650;49.350;20.898;2023-11-19T11:52:03;778.17;;;719.78;;
36653;SDS011;22650;49.350;20.898;2023-11-19T11:54:37;803.70;;;742.08;;
36653;SDS011;22650;49.350;20.898;2023-11-19T11:57:13;795.72;;;734.63;;
36653;SDS011;22650;49.350;20.898;2023-11-19T11:59:50;779.95;;;721.28;;
36653;SDS011;22650;49.350;20.898;2023-11-19T12:02:25;808.00;;;739.58;;
36653;SDS011;22650;49.350;20.898;2023-11-19T12:04:59;771.35;;;712.40;;
36653;SDS011;22650;49.350;20.898;2023-11-19T12:07:35;800.45;;;739.10;;
36653;SDS011;22650;49.350;20.898;2023-11-19T12:10:11;785.72;;;720.58;;
36653;SDS011;22650;49.350;20.898;2023-11-19T12:12:48;757.88;;;700.83;;
36653;SDS011;22650;49.350;20.898;2023-11-19T12:15:21;780.08;;;721.53;;
36653;SDS011;22650;49.350;20.898;2023-11-19T12:17:59;755.72;;;699.72;;
36653;SDS011;22650;49.350;20.898;2023-11-19T12:20:32;767.80;;;710.10;;
36653;SDS011;22650;49.350;20.898;2023-11-19T12:23:10;774.83;;;713.25;;
36653;SDS011;22650;49.350;20.898;2023-11-19T12:25:45;754.03;;;696.03;;
36653;SDS011;22650;49.350;20.898;2023-11-19T12:28:19;734.90;;;679.75;;
36653;SDS011;22650;49.350;20.898;2023-11-19T12:30:54;739.45;;;683.17;;
36653;SDS011;22650;49.350;20.898;2023-11-19T12:33:43;683.60;;;634.28;;
36653;SDS011;22650;49.350;20.898;2023-11-19T12:36:18;708.15;;;656.60;;
36653;SDS011;22650;49.350;20.898;2023-11-19T12:38:52;713.15;;;660.88;;
36653;SDS011;22650;49.350;20.898;2023-11-19T12:41:25;712.13;;;659.58;;
36653;SDS011;22650;49.350;20.898;2023-11-19T12:44:08;726.03;;;671.88;;
36653;SDS011;22650;49.350;20.898;2023-11-19T12:46:44;705.83;;;655.03;;
36653;SDS011;22650;49.350;20.898;2023-11-19T12:49:19;716.08;;;663.75;;
36653;SDS011;22650;49.350;20.898;2023-11-19T12:51:53;721.20;;;667.58;;
36653;SDS011;22650;49.350;20.898;2023-11-19T12:54:33;722.75;;;669.35;;
36653;SDS011;22650;49.350;20.898;2023-11-19T12:57:07;701.58;;;650.97;;
36653;SDS011;22650;49.350;20.898;2023-11-19T12:59:41;725.13;;;672.13;;
36653;SDS011;22650;49.350;20.898;2023-11-19T13:02:15;676.95;;;626.53;;
36653;SDS011;22650;49.350;20.898;2023-11-19T13:04:50;714.08;;;662.42;;
36653;SDS011;22650;49.350;20.898;2023-11-19T13:07:24;719.75;;;666.58;;
36653;SDS011;22650;49.350;20.898;2023-11-19T13:10:01;728.00;;;674.83;;
36653;SDS011;22650;49.350;20.898;2023-11-19T13:12:35;751.38;;;694.78;;
36653;SDS011;22650;49.350;20.898;2023-11-19T13:15:22;710.42;;;658.95;;
36653;SDS011;22650;49.350;20.898;2023-11-19T13:17:57;717.92;;;666.63;;
36653;SDS011;22650;49.350;20.898;2023-11-19T13:20:32;756.30;;;701.10;;
36653;SDS011;22650;49.350;20.898;2023-11-19T13:23:06;744.17;;;689.00;;
36653;SDS011;22650;49.350;20.898;2023-11-19T13:25:39;781.17;;;724.00;;
36653;SDS011;22650;49.350;20.898;2023-11-19T13:28:13;776.13;;;717.78;;
36653;SDS011;22650;49.350;20.898;2023-11-19T13:30:47;787.03;;;727.40;;
36653;SDS011;22650;49.350;20.898;2023-11-19T13:33:21;772.53;;;714.53;;
36653;SDS011;22650;49.350;20.898;2023-11-19T13:35:56;821.13;;;758.28;;
36653;SDS011;22650;49.350;20.898;2023-11-19T13:38:30;755.65;;;698.80;;
36653;SDS011;22650;49.350;20.898;2023-11-19T13:41:04;838.30;;;773.53;;
36653;SDS011;22650;49.350;20.898;2023-11-19T13:43:38;847.85;;;781.17;;
36653;SDS011;22650;49.350;20.898;2023-11-19T13:46:13;844.50;;;779.95;;
36653;SDS011;22650;49.350;20.898;2023-11-19T13:48:46;750.85;;;695.78;;
36653;SDS011;22650;49.350;20.898;2023-11-19T13:51:22;747.53;;;692.60;;
36653;SDS011;22650;49.350;20.898;2023-11-19T13:53:56;767.47;;;710.17;;
36653;SDS011;22650;49.350;20.898;2023-11-19T13:56:33;791.20;;;733.13;;
36653;SDS011;22650;49.350;20.898;2023-11-19T13:59:06;772.55;;;714.20;;
36653;SDS011;22650;49.350;20.898;2023-11-19T14:01:41;798.50;;;735.40;;
36653;SDS011;22650;49.350;20.898;2023-11-19T14:04:14;849.15;;;783.17;;
36653;SDS011;22650;49.350;20.898;2023-11-19T14:06:49;842.90;;;773.53;;
36653;SDS011;22650;49.350;20.898;2023-11-19T14:09:23;875.88;;;801.05;;
36653;SDS011;22650;49.350;20.898;2023-11-19T14:11:57;886.25;;;806.20;;
36653;SDS011;22650;49.350;20.898;2023-11-19T14:14:31;878.60;;;804.22;;
36653;SDS011;22650;49.350;20.898;2023-11-19T14:17:04;905.35;;;822.17;;
36653;SDS011;22650;49.350;20.898;2023-11-19T14:19:42;929.05;;;845.90;;
36653;SDS011;22650;49.350;20.898;2023-11-19T14:22:17;964.00;;;869.17;;
36653;SDS011;22650;49.350;20.898;2023-11-19T14:24:50;991.28;;;895.42;;
36653;SDS011;22650;49.350;20.898;2023-11-19T14:27:24;989.78;;;896.72;;
36653;SDS011;22650;49.350;20.898;2023-11-19T14:29:58;950.30;;;860.47;;